Terminal Aerodrome Forecast
Issued by NWS Omaha/Valley, NE

Home | Current Version | Previous Version | Text Only | Print | Product List | Glossary Off
Versions: 1 2 3 4 5 6 7 8 9 10 11 12 13 14 15 16 17 18 19 20 21

000
FTUS43 KOAX 221323 AAB
TAFOFK
TAF AMD
KOFK 221323Z 2213/2312 35026G35KT 1SM -SN BLSN OVC008
      TEMPO 2213/2215 1/2SM FZFG
     FM221500 35029G39KT 1/2SM SN OVC010
      TEMPO 2215/2219 1/4SM +SN OVC003
     FM221900 34028G37KT 1/2SM SN OVC015
      TEMPO 2219/2221 1/4SM +SN OVC007
     FM222100 34027G36KT 3/4SM -SN BLSN OVC020
     FM222300 34026G34KT 3SM BLSN OVC010
     FM230300 33019G27KT P6SM SCT010
     FM230700 32013KT P6SM SCT025=

USA.gov is the U.S. government's official web portal to all federal, state and local government web resources and services.